Time;durP1;ratioP1;P1;durP2;ratioP2;P2;SDS_P1;SDS_P2;PMS_P1;PMS_P2;Temp;Humidity;BMP_temperature;BMP_pressure;BME280_temperature;BME280_humidity;BME280_pressure;Samples;Min_cycle;Max_cycle;Signal;HPM_P1;HPM_P2
2021/01/05 00:01:41;;;;;;;;;;;-0.20;99.90;;;;;;5086465;28;20058;-85
2021/01/05 00:04:08;;;;;;;0.20;0.20;;;-0.20;99.90;;;;;;5091000;28;19908;-85
2021/01/05 00:06:34;;;;;;;0.52;0.52;;;-0.10;99.90;;;;;;5081603;28;20590;-85
2021/01/05 00:09:01;;;;;;;0.77;0.77;;;0.00;99.90;;;;;;5085866;28;20048;-85
2021/01/05 00:11:26;;;;;;;0.30;0.30;;;0.00;99.90;;;;;;5071772;28;20534;-84
2021/01/05 00:13:53;;;;;;;1.60;1.50;;;0.00;99.90;;;;;;5087881;28;20031;-87
2021/01/05 00:16:19;;;;;;;0.68;0.68;;;0.00;99.90;;;;;;5092422;28;20107;-87
2021/01/05 00:18:45;;;;;;;0.85;0.85;;;-0.10;99.90;;;;;;5082651;28;20028;-86
2021/01/05 00:21:11;;;;;;;0.30;0.30;;;-0.10;99.90;;;;;;5081736;28;20024;-86
2021/01/05 00:23:38;;;;;;;0.63;0.63;;;-0.10;99.90;;;;;;5083329;28;20066;-87
2021/01/05 00:26:04;;;;;;;1.45;1.38;;;-0.10;99.90;;;;;;5080937;28;20104;-86
2021/01/05 00:28:31;;;;;;;1.60;1.50;;;-0.10;92.20;;;;;;5080116;28;20119;-85
2021/01/05 00:30:57;;;;;;;1.45;1.20;;;0.00;75.30;;;;;;5079076;28;20043;-86
2021/01/05 00:33:23;;;;;;;2.35;2.10;;;0.00;42.30;;;;;;5094674;28;20252;-85
2021/01/05 00:35:50;;;;;;;1.98;0.93;;;-0.10;20.50;;;;;;5088154;28;20782;-84
2021/01/05 00:38:16;;;;;;;0.60;0.60;;;-0.10;19.40;;;;;;5082949;28;20036;-85
2021/01/05 00:40:43;;;;;;;0.80;0.80;;;-0.10;29.70;;;;;;5077151;28;20035;-85
2021/01/05 00:43:09;;;;;;;0.30;0.30;;;-0.20;9.30;;;;;;5084344;28;20036;-87
2021/01/05 00:45:38;;;;;;;0.63;0.63;;;-0.20;18.70;;;;;;5084308;28;20159;-87
2021/01/05 00:48:05;;;;;;;1.95;1.85;;;-0.20;33.60;;;;;;5090568;28;20800;-87
2021/01/05 00:50:32;;;;;;;3.10;1.33;;;-0.10;39.60;;;;;;5081414;28;20056;-86
2021/01/05 00:52:59;;;;;;;6.00;1.65;;;-0.20;30.10;;;;;;5082474;28;20586;-86
2021/01/05 00:55:25;;;;;;;0.47;0.47;;;-0.20;33.50;;;;;;5085460;28;20028;-86
2021/01/05 00:57:51;;;;;;;0.20;0.20;;;-0.20;33.40;;;;;;5086598;28;20039;-86
2021/01/05 01:00:26;;;;;;;0.30;0.30;;;-0.10;35.70;;;;;;5089827;28;20035;-86
2021/01/05 01:02:53;;;;;;;0.90;0.88;;;-0.20;25.10;;;;;;5074494;28;20025;-86
2021/01/05 01:05:20;;;;;;;;;;;-0.20;28.80;;;;;;5088467;28;20055;-86
2021/01/05 01:07:47;;;;;;;0.80;0.80;;;-0.10;50.30;;;;;;5078326;28;19916;-86
2021/01/05 01:10:15;;;;;;;1.33;1.33;;;-0.10;35.20;;;;;;5085413;28;20123;-85
2021/01/05 01:12:42;;;;;;;0.38;0.38;;;-0.10;39.00;;;;;;5088048;28;20032;-86
2021/01/05 01:15:10;;;;;;;0.45;0.45;;;0.00;52.10;;;;;;5089762;28;20052;-86
2021/01/05 01:17:36;;;;;;;0.55;0.55;;;0.00;51.90;;;;;;5086982;28;20565;-86
2021/01/05 01:20:06;;;;;;;0.10;0.10;;;-0.10;45.90;;;;;;5089632;28;20031;-87
2021/01/05 01:22:34;;;;;;;0.20;0.20;;;-0.10;38.10;;;;;;5087879;28;20035;-86
2021/01/05 01:25:00;;;;;;;0.35;0.35;;;0.00;39.50;;;;;;5091230;28;20024;-86
2021/01/05 01:27:27;;;;;;;0.45;0.45;;;-0.10;20.80;;;;;;5100964;28;20563;-86
2021/01/05 01:29:53;;;;;;;2.72;2.53;;;-0.10;2.30;;;;;;5089183;28;20043;-86
2021/01/05 01:32:20;;;;;;;0.25;0.25;;;-0.10;15.40;;;;;;5082088;28;20119;-86
2021/01/05 01:34:47;;;;;;;0.68;0.68;;;0.00;19.50;;;;;;5096644;28;20036;-85
2021/01/05 01:37:15;;;;;;;0.52;0.52;;;0.00;22.80;;;;;;5084009;28;20112;-86
2021/01/05 01:39:44;;;;;;;1.92;1.48;;;-0.10;11.70;;;;;;5079606;28;20032;-86
2021/01/05 01:42:13;;;;;;;0.25;0.25;;;-0.10;6.80;;;;;;5073749;28;20042;-86
2021/01/05 01:44:41;;;;;;;0.85;0.85;;;-0.10;1.00;;;;;;5089778;28;20035;-87
2021/01/05 01:47:33;;;;;;;0.45;0.45;;;-0.10;1.00;;;;;;5089308;28;20448;-86
2021/01/05 01:50:11;;;;;;;0.10;0.10;;;-0.20;1.00;;;;;;5082087;28;20072;-87
2021/01/05 01:53:21;;;;;;;0.10;0.10;;;-0.20;1.00;;;;;;5092917;28;20063;-86
2021/01/05 01:55:56;;;;;;;0.20;0.20;;;-0.20;1.00;;;;;;4992961;28;20092;-87
2021/01/05 01:59:00;;;;;;;1.10;1.10;;;-0.10;1.00;;;;;;5002180;28;20403;-87
2021/01/05 02:01:54;;;;;;;2.08;1.70;;;0.00;13.30;;;;;;5002233;28;20520;-86
2021/01/05 02:04:32;;;;;;;0.20;0.20;;;0.00;16.50;;;;;;4998308;28;20615;-87
2021/01/05 02:07:27;;;;;;;0.90;0.90;;;0.00;7.50;;;;;;4992080;28;20030;-87
2021/01/05 02:10:21;;;;;;;0.40;0.40;;;-0.20;1.00;;;;;;5002665;28;20071;-87
2021/01/05 02:13:11;;;;;;;0.20;0.20;;;-0.10;1.00;;;;;;4992291;28;20455;-86
2021/01/05 02:15:49;;;;;;;3.42;1.05;;;-0.10;1.00;;;;;;5002437;28;20530;-86
2021/01/05 02:18:41;;;;;;;0.85;0.82;;;-0.10;1.00;;;;;;5006380;28;20049;-86
2021/01/05 02:21:16;;;;;;;0.43;0.43;;;0.00;1.00;;;;;;4989644;28;20060;-88
2021/01/05 02:24:08;;;;;;;0.40;0.40;;;0.00;1.00;;;;;;4992203;28;20042;-88
2021/01/05 02:27:05;;;;;;;3.03;1.23;;;0.00;1.00;;;;;;4991112;28;20027;-88
2021/01/05 02:29:56;;;;;;;0.57;0.57;;;0.00;1.00;;;;;;5021370;28;20040;-89
2021/01/05 02:32:37;;;;;;;0.35;0.35;;;0.00;1.00;;;;;;5078886;28;20111;-88
2021/01/05 02:35:20;;;;;;;1.38;0.52;;;0.00;1.00;;;;;;5076050;28;20151;-88
2021/01/05 02:38:02;;;;;;;0.10;0.10;;;0.00;1.00;;;;;;5080251;28;20447;-88
2021/01/05 02:40:46;;;;;;;0.20;0.20;;;-0.10;1.00;;;;;;5081135;28;20017;-88
2021/01/05 02:43:40;;;;;;;0.40;0.30;;;-0.10;1.00;;;;;;5079510;28;20032;-89
2021/01/05 02:46:28;;;;;;;1.10;1.02;;;0.00;1.00;;;;;;5074597;28;20476;-89
2021/01/05 02:49:33;;;;;;;0.20;0.20;;;-0.10;1.00;;;;;;5071545;28;20036;-88
2021/01/05 02:52:14;;;;;;;0.35;0.35;;;-0.20;1.00;;;;;;5073538;28;20119;-88
2021/01/05 02:55:23;;;;;;;0.65;0.65;;;-0.20;1.00;;;;;;5083923;28;20017;-88
2021/01/05 02:58:07;;;;;;;0.20;0.20;;;-0.10;1.00;;;;;;4980201;28;20074;-87
2021/01/05 03:01:10;;;;;;;0.20;0.20;;;0.00;1.00;;;;;;4972661;28;20078;-89
2021/01/05 03:03:47;;;;;;;0.93;0.68;;;0.00;1.00;;;;;;4976249;28;20072;-89
2021/01/05 03:06:17;;;;;;;;;;;0.10;1.00;;;;;;4984630;28;20090;-89
2021/01/05 03:09:03;;;;;;;0.75;0.75;;;0.10;1.00;;;;;;4976612;28;19989;-89
2021/01/05 03:11:44;;;;;;;1.10;1.10;;;0.20;1.00;;;;;;4987050;28;20033;-89
2021/01/05 03:14:46;;;;;;;0.20;0.20;;;0.20;1.00;;;;;;4991345;28;20038;-88
2021/01/05 03:17:41;;;;;;;0.38;0.38;;;0.10;1.00;;;;;;4925058;29;20081;-86
2021/01/05 03:20:15;;;;;;;0.10;0.10;;;0.00;1.00;;;;;;4921416;29;20483;-86
2021/01/05 03:22:59;;;;;;;0.52;0.52;;;0.00;1.00;;;;;;4915620;29;20032;-86
2021/01/05 03:25:29;;;;;;;1.08;0.98;;;0.10;1.00;;;;;;4928780;29;20385;-86
2021/01/05 03:27:59;;;;;;;6.35;2.08;;;0.20;1.00;;;;;;4931528;29;20083;-85
2021/01/05 03:30:31;;;;;;;0.35;0.35;;;0.30;1.00;;;;;;4931861;29;20660;-85
2021/01/05 03:32:59;;;;;;;0.52;0.52;;;0.30;1.00;;;;;;4957695;28;20042;-86
2021/01/05 03:35:27;;;;;;;0.30;0.30;;;0.20;1.00;;;;;;5029510;28;20033;-85
2021/01/05 03:37:55;;;;;;;0.73;0.73;;;0.30;1.00;;;;;;5029317;28;20021;-87
2021/01/05 03:40:22;;;;;;;0.60;0.60;;;0.20;1.00;;;;;;5012561;28;20160;-87
2021/01/05 03:42:49;;;;;;;2.15;1.95;;;0.30;1.00;;;;;;5030612;28;20017;-89
2021/01/05 03:45:23;;;;;;;;;;;0.30;1.00;;;;;;5031294;28;20535;-87
2021/01/05 03:47:50;;;;;;;1.33;1.15;;;0.30;1.00;;;;;;5012218;28;19909;-87
2021/01/05 03:50:18;;;;;;;1.90;1.80;;;0.30;99.90;;;;;;5011763;28;20134;-87
2021/01/05 03:52:44;;;;;;;0.32;0.32;;;0.10;99.90;;;;;;5029551;28;20037;-88
2021/01/05 03:55:12;;;;;;;0.50;0.50;;;0.00;99.90;;;;;;5087031;28;20416;-86
2021/01/05 03:57:39;;;;;;;0.20;0.20;;;0.20;99.90;;;;;;5084541;28;20043;-87
2021/01/05 04:00:09;;;;;;;;;;;0.10;99.90;;;;;;5078799;28;20032;-87
2021/01/05 04:02:36;;;;;;;0.52;0.52;;;0.10;99.90;;;;;;5091105;28;19908;-87
2021/01/05 04:05:04;;;;;;;0.40;0.25;;;0.10;99.90;;;;;;5087113;28;20024;-86
2021/01/05 04:07:31;;;;;;;0.30;0.30;;;0.10;1.00;;;;;;5092412;28;20672;-87
2021/01/05 04:09:57;;;;;;;;;;;0.00;1.00;;;;;;5083270;28;20040;-86
2021/01/05 04:12:23;;;;;;;0.85;0.85;;;-0.10;1.00;;;;;;5081384;28;19981;-87
2021/01/05 04:14:50;;;;;;;0.40;0.40;;;-0.10;1.00;;;;;;5087087;28;20119;-85
2021/01/05 04:17:16;;;;;;;0.50;0.50;;;-0.10;1.00;;;;;;5085948;28;20036;-86
2021/01/05 04:19:43;;;;;;;0.60;0.60;;;-0.10;1.00;;;;;;5090465;28;20040;-86
2021/01/05 04:22:10;;;;;;;0.60;0.60;;;-0.10;1.00;;;;;;5089844;28;20035;-87
2021/01/05 04:24:37;;;;;;;3.65;1.40;;;-0.10;1.00;;;;;;5085773;28;20032;-87
2021/01/05 04:27:04;;;;;;;2.63;2.40;;;0.00;1.00;;;;;;5086263;28;20032;-87
2021/01/05 04:29:30;;;;;;;;;;;0.00;1.00;;;;;;5088049;28;20036;-87
2021/01/05 04:31:56;;;;;;;1.58;1.48;;;0.00;1.00;;;;;;5090279;28;20128;-87
2021/01/05 04:34:23;;;;;;;0.73;0.73;;;0.00;1.00;;;;;;5087353;28;20032;-87
2021/01/05 04:36:49;;;;;;;0.77;0.77;;;0.10;1.00;;;;;;5088272;28;20407;-86
2021/01/05 04:39:16;;;;;;;0.25;0.25;;;0.20;1.00;;;;;;5089380;28;20052;-88
2021/01/05 04:41:50;;;;;;;1.70;1.60;;;0.30;1.00;;;;;;5092108;28;20028;-87
2021/01/05 04:44:18;;;;;;;0.55;0.55;;;0.30;1.00;;;;;;5087632;28;20040;-87
2021/01/05 04:47:36;;;;;;;3.03;2.47;;;0.20;99.90;;;;;;5089779;28;20399;-86
2021/01/05 04:50:19;;;;;;;1.40;1.30;;;0.30;1.00;;;;;;5064776;28;20048;-87
2021/01/05 04:52:50;;;;;;;1.75;1.65;;;0.40;1.00;;;;;;5056563;28;20029;-87
2021/01/05 04:55:36;;;;;;;2.00;0.60;;;0.20;99.90;;;;;;5043692;28;20064;-87
2021/01/05 04:58:12;;;;;;;1.63;1.53;;;0.20;99.90;;;;;;5050500;28;20102;-85
2021/01/05 05:00:41;;;;;;;0.50;0.50;;;0.30;99.90;;;;;;5054330;28;20032;-87
2021/01/05 05:03:46;;;;;;;0.65;0.65;;;0.20;99.90;;;;;;5063847;28;20056;-87
2021/01/05 05:06:47;;;;;;;0.52;0.43;;;0.30;99.90;;;;;;5045578;28;20090;-87
2021/01/05 05:09:18;;;;;;;3.85;0.98;;;0.40;99.90;;;;;;5016882;28;20061;-87
2021/01/05 05:12:05;;;;;;;1.70;1.60;;;0.30;99.90;;;;;;5011979;28;20061;-87
2021/01/05 05:14:47;;;;;;;1.70;1.58;;;0.30;99.90;;;;;;5024613;28;20037;-86
2021/01/05 05:17:23;;;;;;;0.75;0.75;;;0.40;99.90;;;;;;5010617;28;20116;-86
2021/01/05 05:20:26;;;;;;;0.60;0.60;;;0.40;99.90;;;;;;5011158;28;20038;-86
2021/01/05 05:23:13;;;;;;;1.58;1.25;;;0.40;99.90;;;;;;5022735;28;20037;-86
2021/01/05 05:25:49;;;;;;;0.30;0.30;;;0.30;99.90;;;;;;5012996;28;20814;-86
2021/01/05 05:28:30;;;;;;;1.05;1.05;;;0.30;99.90;;;;;;5047216;28;20036;-86
2021/01/05 05:30:59;;;;;;;0.50;0.50;;;0.30;99.90;;;;;;5034437;28;20546;-86
2021/01/05 05:33:30;;;;;;;1.30;1.30;;;0.10;99.90;;;;;;5059213;28;20032;-86
2021/01/05 05:35:56;;;;;;;4.88;3.28;;;0.00;99.90;;;;;;5049605;28;20028;-85
2021/01/05 05:38:45;;;;;;;1.02;1.02;;;-0.10;1.00;;;;;;5052437;28;20438;-84
2021/01/05 05:41:39;;;;;;;4.13;1.10;;;0.00;1.00;;;;;;5060535;28;20047;-86
2021/01/05 05:44:15;;;;;;;0.47;0.47;;;0.00;1.00;;;;;;5058311;28;20143;-87
2021/01/05 05:47:08;;;;;;;3.00;2.75;;;0.00;1.00;;;;;;5077922;28;20055;-86
2021/01/05 05:50:05;;;;;;;1.98;1.88;;;0.00;1.00;;;;;;5086469;28;20135;-88
2021/01/05 05:52:31;;;;;;;0.80;0.80;;;0.00;1.00;;;;;;5075175;28;20678;-89
2021/01/05 05:54:59;;;;;;;1.10;1.10;;;0.00;1.00;;;;;;5083027;28;20032;-88
2021/01/05 05:57:48;;;;;;;1.85;1.60;;;-0.10;1.00;;;;;;5079395;28;20419;-88
2021/01/05 06:00:14;;;;;;;0.75;0.75;;;0.00;1.00;;;;;;5072167;28;20038;-91
2021/01/05 06:02:40;;;;;;;1.95;1.85;;;0.00;1.00;;;;;;5075969;28;20487;-86
2021/01/05 06:05:32;;;;;;;1.30;1.23;;;0.10;1.00;;;;;;5088081;28;20036;-87
2021/01/05 06:07:58;;;;;;;0.40;0.40;;;0.10;1.00;;;;;;5089203;28;20254;-87
2021/01/05 06:10:24;;;;;;;0.82;0.82;;;0.10;1.00;;;;;;5075960;28;20035;-86
2021/01/05 06:12:50;;;;;;;1.05;1.05;;;0.20;1.00;;;;;;5080396;28;20709;-86
2021/01/05 06:15:16;;;;;;;1.67;1.15;;;0.00;1.00;;;;;;5087669;28;20078;-87
2021/01/05 06:17:42;;;;;;;1.13;1.13;;;0.10;1.00;;;;;;5078725;28;20038;-84
2021/01/05 06:20:09;;;;;;;0.40;0.40;;;0.20;1.00;;;;;;5078775;28;20020;-84
2021/01/05 06:22:34;;;;;;;1.95;1.85;;;0.20;1.00;;;;;;5087583;28;20097;-83
2021/01/05 06:25:00;;;;;;;1.55;1.50;;;0.20;99.90;;;;;;5079374;28;20753;-83
2021/01/05 06:27:26;;;;;;;0.30;0.30;;;0.30;99.90;;;;;;5069718;28;20152;-83
2021/01/05 06:29:52;;;;;;;2.03;1.85;;;0.30;99.90;;;;;;5086099;28;20138;-83
2021/01/05 06:32:18;;;;;;;0.43;0.43;;;0.30;99.90;;;;;;5088820;28;20047;-84
2021/01/05 06:34:43;;;;;;;1.85;1.55;;;0.30;99.90;;;;;;5086772;28;20039;-85
2021/01/05 06:37:09;;;;;;;0.20;0.20;;;0.30;99.90;;;;;;5077542;28;20063;-87
2021/01/05 06:39:35;;;;;;;2.20;2.10;;;0.30;99.90;;;;;;5075425;28;20037;-85
2021/01/05 06:42:01;;;;;;;1.25;1.25;;;0.40;99.90;;;;;;5083783;28;20226;-86
2021/01/05 06:44:26;;;;;;;0.45;0.45;;;0.40;99.90;;;;;;5081503;28;20555;-85
2021/01/05 06:46:53;;;;;;;0.63;0.63;;;0.40;99.90;;;;;;5088319;28;20286;-85
2021/01/05 06:49:19;;;;;;;0.40;0.40;;;0.30;99.90;;;;;;5075742;28;20131;-84
2021/01/05 06:51:45;;;;;;;2.40;0.85;;;0.30;99.90;;;;;;5076388;28;20020;-85
2021/01/05 06:54:11;;;;;;;4.93;4.32;;;0.30;99.90;;;;;;5086233;28;20086;-85
2021/01/05 06:56:50;;;;;;;0.70;0.70;;;0.30;99.90;;;;;;5081541;28;20111;-85
2021/01/05 06:59:16;;;;;;;0.45;0.45;;;0.30;99.90;;;;;;5079999;28;20032;-85
2021/01/05 07:01:49;;;;;;;1.70;1.63;;;0.30;99.90;;;;;;5081483;28;20073;-86
2021/01/05 07:04:15;;;;;;;1.90;1.80;;;0.30;99.90;;;;;;5084539;28;20270;-87
2021/01/05 07:06:41;;;;;;;1.88;1.77;;;0.30;99.90;;;;;;5074508;28;20808;-87
2021/01/05 07:09:06;;;;;;;1.33;1.33;;;0.30;99.90;;;;;;5072340;28;20496;-87
2021/01/05 07:11:32;;;;;;;7.63;3.38;;;0.40;99.90;;;;;;5082080;28;20059;-86
2021/01/05 07:13:58;;;;;;;4.18;2.80;;;0.40;99.90;;;;;;5072369;28;20027;-87
2021/01/05 07:16:24;;;;;;;1.02;1.02;;;0.30;99.90;;;;;;5085997;28;20099;-86
2021/01/05 07:18:49;;;;;;;6.30;2.63;;;0.30;99.90;;;;;;5071777;28;20063;-87
2021/01/05 07:21:15;;;;;;;1.20;1.20;;;0.20;99.90;;;;;;5073209;28;20029;-86
2021/01/05 07:23:41;;;;;;;1.38;1.27;;;0.20;99.90;;;;;;5082696;28;20077;-86
2021/01/05 07:26:07;;;;;;;3.72;2.85;;;0.20;99.90;;;;;;5081903;28;20107;-86
2021/01/05 07:28:32;;;;;;;1.17;1.13;;;0.30;99.90;;;;;;5080511;28;20207;-86
2021/01/05 07:30:58;;;;;;;1.23;1.10;;;0.30;99.90;;;;;;5085494;28;20065;-85
2021/01/05 07:33:24;;;;;;;5.57;1.55;;;0.30;99.90;;;;;;5074007;28;20046;-86
2021/01/05 07:35:50;;;;;;;2.00;1.90;;;0.30;99.90;;;;;;5072784;28;20186;-85
2021/01/05 07:38:15;;;;;;;2.55;2.35;;;0.30;99.90;;;;;;5080027;28;20472;-86
2021/01/05 07:40:41;;;;;;;1.80;1.65;;;0.30;99.90;;;;;;5084466;28;20078;-85
2021/01/05 07:43:07;;;;;;;6.75;2.08;;;0.30;99.90;;;;;;5084031;28;20112;-85
2021/01/05 07:45:33;;;;;;;1.65;1.35;;;0.40;99.90;;;;;;5083000;28;20111;-86
2021/01/05 07:47:59;;;;;;;1.45;1.45;;;0.40;99.90;;;;;;5085837;28;20515;-85
2021/01/05 07:50:26;;;;;;;1.60;1.52;;;0.30;99.90;;;;;;5074173;28;20638;-86
2021/01/05 07:52:53;;;;;;;0.43;0.43;;;0.30;99.90;;;;;;5082978;28;20032;-85
2021/01/05 07:55:25;;;;;;;2.63;2.42;;;0.20;99.90;;;;;;5083356;28;20479;-86
2021/01/05 07:57:52;;;;;;;1.80;1.50;;;0.30;99.90;;;;;;5067772;28;20042;-86
2021/01/05 08:00:20;;;;;;;1.23;1.23;;;0.30;99.90;;;;;;5069673;28;20032;-85
2021/01/05 08:02:46;;;;;;;0.20;0.20;;;0.30;99.90;;;;;;5083056;28;20301;-85
2021/01/05 08:05:17;;;;;;;1.15;1.15;;;0.30;99.90;;;;;;5088050;28;20802;-85
2021/01/05 08:07:44;;;;;;;0.43;0.43;;;0.30;99.90;;;;;;5087039;28;20114;-84
2021/01/05 08:10:23;;;;;;;3.45;1.65;;;0.40;99.90;;;;;;5075926;28;20689;-85
2021/01/05 08:12:49;;;;;;;0.55;0.55;;;0.30;99.90;;;;;;5077733;28;20051;-85
2021/01/05 08:15:18;;;;;;;3.97;3.65;;;0.40;99.90;;;;;;5091157;28;20035;-85
2021/01/05 08:17:44;;;;;;;2.75;2.55;;;0.30;99.90;;;;;;5091143;28;20032;-86
2021/01/05 08:20:11;;;;;;;6.03;3.75;;;0.40;99.90;;;;;;5091022;28;20039;-86
2021/01/05 08:22:37;;;;;;;1.90;1.27;;;0.60;99.90;;;;;;5091457;28;20039;-86
2021/01/05 08:25:03;;;;;;;0.82;0.82;;;0.50;99.90;;;;;;5091225;28;20016;-85
2021/01/05 08:27:28;;;;;;;0.70;0.70;;;0.60;99.90;;;;;;5089974;28;20051;-85
2021/01/05 08:29:54;;;;;;;2.08;1.65;;;0.50;99.90;;;;;;5091097;28;20055;-85
2021/01/05 08:32:22;;;;;;;0.73;0.63;;;0.50;99.90;;;;;;5085955;28;20154;-85
2021/01/05 08:34:48;;;;;;;2.17;1.23;;;0.60;99.90;;;;;;5088693;28;20032;-85
2021/01/05 08:37:14;;;;;;;0.38;0.38;;;0.60;99.90;;;;;;5089932;28;20046;-85
2021/01/05 08:39:41;;;;;;;0.45;0.45;;;0.80;99.90;;;;;;5091152;28;20024;-85
2021/01/05 08:42:07;;;;;;;0.82;0.82;;;0.80;99.90;;;;;;5091012;28;20012;-85
2021/01/05 08:44:33;;;;;;;0.55;0.55;;;0.80;99.90;;;;;;5091399;28;20511;-85
2021/01/05 08:47:02;;;;;;;0.73;0.50;;;0.90;99.90;;;;;;5076661;28;20051;-85
2021/01/05 08:49:30;;;;;;;1.10;1.10;;;0.90;99.90;;;;;;5090679;28;20097;-85
2021/01/05 08:51:55;;;;;;;;;;;1.00;99.90;;;;;;5089887;28;20399;-84
2021/01/05 08:54:21;;;;;;;0.60;0.60;;;1.00;99.90;;;;;;5091133;28;19907;-85
2021/01/05 08:56:55;;;;;;;3.33;2.73;;;1.10;99.90;;;;;;5090641;28;20066;-85
2021/01/05 08:59:22;;;;;;;3.17;2.25;;;1.20;99.90;;;;;;5090924;28;20840;-85
2021/01/05 09:01:48;;;;;;;4.28;3.22;;;1.30;99.90;;;;;;5090985;28;20077;-85
2021/01/05 09:04:14;;;;;;;1.83;1.40;;;1.30;99.90;;;;;;5089535;28;20111;-85
2021/01/05 09:06:39;;;;;;;0.65;0.65;;;1.40;99.90;;;;;;5090992;28;20452;-85
2021/01/05 09:09:06;;;;;;;1.63;1.55;;;1.30;99.90;;;;;;5090513;28;20487;-85
2021/01/05 09:11:31;;;;;;;1.17;0.83;;;1.50;99.90;;;;;;5091213;28;20051;-85
2021/01/05 09:13:57;;;;;;;2.40;1.95;;;1.60;99.90;;;;;;5090730;28;20047;-85
2021/01/05 09:16:32;;;;;;;2.33;2.05;;;1.70;99.90;;;;;;5090835;28;20032;-85
2021/01/05 09:18:59;;;;;;;0.30;0.30;;;2.00;99.90;;;;;;5090062;28;20024;-85
2021/01/05 09:21:27;;;;;;;0.98;0.98;;;2.30;99.90;;;;;;5090493;28;20055;-85
2021/01/05 09:23:55;;;;;;;1.15;1.13;;;2.40;99.90;;;;;;5089866;28;20024;-85
2021/01/05 09:26:24;;;;;;;1.08;1.05;;;2.20;99.90;;;;;;5090415;28;20399;-85
2021/01/05 09:28:51;;;;;;;0.40;0.40;;;2.20;99.90;;;;;;5085978;28;20821;-85
2021/01/05 09:31:18;;;;;;;1.40;1.30;;;2.10;99.90;;;;;;5075912;28;20116;-85
2021/01/05 09:33:44;;;;;;;4.35;1.13;;;2.40;99.90;;;;;;5082406;28;20043;-85
2021/01/05 09:36:10;;;;;;;1.73;1.63;;;2.30;99.90;;;;;;5089478;28;20043;-86
2021/01/05 09:38:38;;;;;;;0.32;0.32;;;2.00;99.90;;;;;;5088866;28;20039;-85
2021/01/05 09:41:04;;;;;;;0.57;0.57;;;1.90;99.90;;;;;;5090320;28;20035;-85
2021/01/05 09:43:30;;;;;;;1.02;1.02;;;1.70;99.90;;;;;;5089969;28;20016;-84
2021/01/05 09:45:56;;;;;;;0.33;0.33;;;1.80;99.90;;;;;;5090301;28;20106;-85
2021/01/05 09:48:22;;;;;;;2.55;0.63;;;1.90;99.90;;;;;;5089920;28;20120;-84
2021/01/05 09:50:48;;;;;;;0.95;0.95;;;1.90;99.90;;;;;;5089987;28;20055;-84
2021/01/05 09:53:14;;;;;;;2.83;1.92;;;2.10;99.90;;;;;;5089597;28;20085;-84
2021/01/05 09:55:41;;;;;;;1.45;1.45;;;2.50;99.90;;;;;;5088380;28;20668;-84
2021/01/05 09:58:07;;;;;;;0.70;0.70;;;2.60;99.90;;;;;;5089633;28;20123;-84
2021/01/05 10:00:33;;;;;;;1.48;1.38;;;2.90;99.90;;;;;;5089759;28;20027;-85
2021/01/05 10:02:59;;;;;;;2.47;2.27;;;2.90;99.90;;;;;;5078000;28;20028;-84
2021/01/05 10:05:25;;;;;;;0.68;0.68;;;2.90;99.90;;;;;;5087147;28;20387;-84
2021/01/05 10:07:51;;;;;;;0.45;0.45;;;2.80;99.90;;;;;;5088537;28;20035;-85
2021/01/05 10:10:23;;;;;;;1.67;1.55;;;2.80;99.90;;;;;;5087831;28;20461;-85
2021/01/05 10:12:49;;;;;;;1.58;1.48;;;2.80;99.90;;;;;;5088077;28;20043;-84
2021/01/05 10:15:16;;;;;;;1.73;1.13;;;2.60;99.90;;;;;;5089191;28;20028;-85
2021/01/05 10:17:42;;;;;;;0.82;0.82;;;2.60;99.90;;;;;;5089194;28;20031;-85
2021/01/05 10:20:10;;;;;;;1.20;1.10;;;2.80;99.90;;;;;;5087831;28;20818;-85
2021/01/05 10:22:37;;;;;;;0.10;0.10;;;2.40;99.90;;;;;;5089163;28;20483;-84
2021/01/05 10:25:03;;;;;;;1.98;1.48;;;2.20;99.90;;;;;;5089164;28;20066;-85
2021/01/05 10:27:29;;;;;;;0.20;0.20;;;1.80;99.90;;;;;;5088471;28;20028;-85
2021/01/05 10:29:55;;;;;;;3.65;2.55;;;1.70;99.90;;;;;;5089331;28;20078;-84
2021/01/05 10:32:22;;;;;;;15.77;2.40;;;1.90;99.90;;;;;;5083515;28;20492;-84
2021/01/05 10:34:48;;;;;;;0.63;0.63;;;1.60;99.90;;;;;;5086468;28;20020;-84
2021/01/05 10:37:13;;;;;;;0.57;0.57;;;1.60;99.90;;;;;;5088905;28;20540;-84
2021/01/05 10:39:39;;;;;;;0.73;0.73;;;1.70;99.90;;;;;;5074870;28;20399;-84
2021/01/05 10:42:05;;;;;;;0.80;0.80;;;1.70;99.90;;;;;;5087699;28;20103;-84
2021/01/05 10:44:31;;;;;;;0.10;0.10;;;1.90;99.90;;;;;;5088531;28;20502;-84
2021/01/05 10:47:02;;;;;;;0.65;0.65;;;2.30;99.90;;;;;;5088845;28;20266;-84
2021/01/05 10:49:28;;;;;;;0.47;0.47;;;1.90;99.90;;;;;;5088644;28;20050;-83
2021/01/05 10:51:59;;;;;;;0.63;0.63;;;2.10;99.90;;;;;;5087247;28;20399;-83
2021/01/05 10:54:27;;;;;;;1.10;1.10;;;1.90;99.90;;;;;;5088419;28;20266;-83
2021/01/05 10:57:04;;;;;;;0.68;0.68;;;2.00;99.90;;;;;;5088467;28;20032;-83
2021/01/05 10:59:31;;;;;;;1.38;1.35;;;2.10;99.90;;;;;;5088410;28;20024;-83
2021/01/05 11:02:02;;;;;;;0.70;0.70;;;2.30;99.90;;;;;;5088683;28;20021;-83
2021/01/05 11:04:29;;;;;;;0.20;0.20;;;2.40;99.90;;;;;;5088423;28;20055;-83
2021/01/05 11:06:56;;;;;;;;;;;2.40;99.90;;;;;;5089050;28;20039;-83
2021/01/05 11:09:23;;;;;;;3.20;0.85;;;2.80;99.90;;;;;;5088514;28;19959;-83
2021/01/05 11:11:58;;;;;;;0.30;0.30;;;3.10;99.90;;;;;;5086746;28;20078;-83
2021/01/05 11:14:24;;;;;;;0.60;0.60;;;2.60;99.90;;;;;;5087182;28;20032;-83
2021/01/05 11:16:50;;;;;;;4.07;1.30;;;2.70;99.90;;;;;;5088275;28;20048;-83
2021/01/05 11:19:17;;;;;;;2.42;1.35;;;2.80;99.90;;;;;;5088449;28;20395;-83
2021/01/05 11:21:53;;;;;;;1.25;1.25;;;2.70;99.90;;;;;;5088300;28;20028;-83
2021/01/05 11:24:20;;;;;;;0.25;0.25;;;2.90;99.90;;;;;;5088631;28;20073;-83
2021/01/05 11:26:46;;;;;;;1.55;1.45;;;2.60;99.90;;;;;;5088155;28;20125;-83
2021/01/05 11:29:12;;;;;;;0.57;0.57;;;2.40;99.90;;;;;;5087229;28;20036;-84
2021/01/05 11:31:38;;;;;;;0.63;0.63;;;2.70;99.90;;;;;;5082736;28;20047;-84
2021/01/05 11:34:04;;;;;;;0.25;0.25;;;2.50;99.90;;;;;;5088087;28;20495;-83
2021/01/05 11:36:31;;;;;;;0.28;0.28;;;2.40;99.90;;;;;;5088471;28;20030;-84
2021/01/05 11:38:57;;;;;;;;;;;2.10;99.90;;;;;;5088838;28;20016;-84
2021/01/05 11:41:29;;;;;;;0.20;0.20;;;2.20;99.90;;;;;;5088259;28;19907;-84
2021/01/05 11:43:56;;;;;;;0.75;0.75;;;2.20;99.90;;;;;;5079182;28;20506;-84
2021/01/05 11:46:22;;;;;;;0.20;0.20;;;2.40;99.90;;;;;;5081990;28;20031;-84
2021/01/05 11:48:48;;;;;;;0.63;0.63;;;2.50;99.90;;;;;;5091844;28;20036;-84
2021/01/05 11:51:19;;;;;;;0.77;0.77;;;2.60;99.90;;;;;;5090769;28;20090;-83
2021/01/05 11:53:45;;;;;;;5.32;1.63;;;2.80;99.90;;;;;;5091758;28;20269;-84
2021/01/05 11:56:17;;;;;;;0.63;0.63;;;2.80;99.90;;;;;;5092111;28;20034;-84
2021/01/05 11:58:43;;;;;;;0.35;0.35;;;2.80;99.90;;;;;;5092084;28;20089;-84
2021/01/05 12:01:09;;;;;;;0.52;0.52;;;2.60;99.90;;;;;;5092249;28;20032;-84
2021/01/05 12:03:34;;;;;;;4.80;1.52;;;3.00;99.90;;;;;;5091823;28;20022;-84
2021/01/05 12:06:00;;;;;;;0.57;0.57;;;3.40;99.90;;;;;;5091528;28;20028;-84
2021/01/05 12:08:26;;;;;;;0.77;0.77;;;2.90;99.90;;;;;;5090041;28;20032;-84
2021/01/05 12:10:52;;;;;;;0.20;0.20;;;2.90;99.90;;;;;;5091917;28;20028;-84
2021/01/05 12:13:17;;;;;;;1.45;1.20;;;3.00;99.90;;;;;;5091912;28;20020;-84
2021/01/05 12:15:43;;;;;;;0.57;0.57;;;2.80;99.90;;;;;;5091218;28;20024;-84
2021/01/05 12:18:09;;;;;;;0.40;0.40;;;3.00;99.90;;;;;;5091663;28;20031;-84
2021/01/05 12:20:35;;;;;;;0.43;0.43;;;3.00;99.90;;;;;;5091563;28;20612;-84
2021/01/05 12:23:00;;;;;;;0.20;0.20;;;3.00;99.90;;;;;;5081275;28;20119;-84
2021/01/05 12:25:26;;;;;;;0.30;0.30;;;3.50;99.90;;;;;;5071722;28;20374;-84
2021/01/05 12:27:52;;;;;;;0.10;0.10;;;3.30;99.90;;;;;;5091162;28;20399;-84
2021/01/05 12:30:18;;;;;;;5.45;1.30;;;3.30;99.90;;;;;;5091226;28;20457;-84
2021/01/05 12:32:44;;;;;;;1.45;1.35;;;3.10;99.90;;;;;;5081802;28;20033;-84
2021/01/05 12:35:10;;;;;;;0.20;0.20;;;3.60;99.90;;;;;;5090631;28;20063;-84
2021/01/05 12:37:36;;;;;;;0.63;0.63;;;3.60;99.90;;;;;;5089943;28;20216;-84
2021/01/05 12:40:03;;;;;;;1.38;1.27;;;3.70;99.90;;;;;;5090920;28;20091;-84
2021/01/05 12:42:30;;;;;;;0.10;0.10;;;4.00;99.90;;;;;;5080517;28;20024;-84
2021/01/05 12:44:56;;;;;;;0.20;0.20;;;3.70;99.90;;;;;;5087919;28;20023;-84
2021/01/05 12:47:24;;;;;;;0.52;0.52;;;3.70;99.90;;;;;;5091430;28;20089;-84
2021/01/05 12:49:51;;;;;;;0.63;0.60;;;3.40;99.90;;;;;;5090537;28;20055;-84
2021/01/05 12:52:17;;;;;;;0.10;0.10;;;3.30;99.90;;;;;;5090623;28;21310;-84
2021/01/05 12:54:44;;;;;;;1.08;1.08;;;3.20;99.90;;;;;;5091437;28;20016;-84
2021/01/05 12:57:13;;;;;;;2.25;0.95;;;3.40;99.90;;;;;;5090563;28;20027;-84
2021/01/05 12:59:41;;;;;;;0.35;0.35;;;3.00;99.90;;;;;;5088294;28;20024;-84
2021/01/05 13:02:19;;;;;;;0.57;0.57;;;3.50;99.90;;;;;;5089177;28;20495;-84
2021/01/05 13:04:46;;;;;;;0.10;0.10;;;3.90;99.90;;;;;;5091135;28;20032;-85
2021/01/05 13:07:15;;;;;;;1.58;1.45;;;3.50;99.90;;;;;;5089147;28;20587;-84
2021/01/05 13:09:41;;;;;;;2.05;1.83;;;3.60;99.90;;;;;;5089776;28;20458;-84
2021/01/05 13:12:07;;;;;;;0.38;0.38;;;3.50;99.90;;;;;;5090556;28;20134;-84
2021/01/05 13:14:33;;;;;;;3.37;0.80;;;3.50;99.90;;;;;;5090211;28;20040;-84
2021/01/05 13:16:59;;;;;;;1.10;1.10;;;3.30;99.90;;;;;;5075946;28;20040;-85
2021/01/05 13:19:25;;;;;;;0.98;0.85;;;2.90;99.90;;;;;;5090328;28;20034;-85